createdAt,value
2022-10-04T00:04:29.070Z,10.80
2022-10-04T00:09:58.090Z,10.80
2022-10-04T00:15:06.069Z,10.80
2022-10-04T00:20:56.902Z,10.70
2022-10-04T00:26:02.358Z,10.60
2022-10-04T00:31:20.658Z,10.50
2022-10-04T00:36:29.769Z,10.40
2022-10-04T00:41:43.535Z,10.40
2022-10-04T00:46:49.311Z,10.40
2022-10-04T00:52:17.530Z,10.30
2022-10-04T00:57:38.337Z,10.30
2022-10-04T01:02:47.078Z,10.30
2022-10-04T01:08:06.451Z,10.30
2022-10-04T01:13:51.230Z,10.30
2022-10-04T01:18:54.524Z,10.40
2022-10-04T01:24:00.000Z,10.30
2022-10-04T01:29:08.889Z,10.40
2022-10-04T01:34:18.352Z,10.40
2022-10-04T01:39:23.940Z,10.40
2022-10-04T01:44:56.640Z,10.40
2022-10-04T01:50:03.720Z,10.40
2022-10-04T01:55:30.473Z,10.40
2022-10-04T02:00:34.559Z,10.30
2022-10-04T02:05:44.198Z,10.40
2022-10-04T02:10:51.009Z,10.40
2022-10-04T02:15:54.986Z,10.40
2022-10-04T02:20:59.939Z,10.30
2022-10-04T02:26:11.790Z,10.30
2022-10-04T02:31:34.013Z,10.30
2022-10-04T02:36:38.256Z,10.20
2022-10-04T02:41:51.247Z,10.10
2022-10-04T02:47:15.939Z,10.10
2022-10-04T02:52:28.091Z,10.00
2022-10-04T02:57:34.648Z,9.90
2022-10-04T03:02:37.991Z,9.90
2022-10-04T03:07:41.551Z,9.90
2022-10-04T03:12:44.639Z,9.80
2022-10-04T03:17:47.989Z,9.90
2022-10-04T03:22:56.189Z,9.80
2022-10-04T03:28:02.704Z,9.80
2022-10-04T03:33:06.760Z,9.80
2022-10-04T03:38:13.380Z,9.80
2022-10-04T03:43:17.249Z,9.80
2022-10-04T03:48:44.109Z,9.90
2022-10-04T03:53:50.450Z,9.90
2022-10-04T03:58:55.749Z,9.90
2022-10-04T04:04:53.276Z,9.90
2022-10-04T04:10:05.734Z,9.80
2022-10-04T04:15:14.494Z,9.70
2022-10-04T04:20:20.465Z,9.70
2022-10-04T04:25:25.751Z,9.60
2022-10-04T04:30:30.903Z,9.50
2022-10-04T04:35:37.374Z,9.50
2022-10-04T04:40:41.502Z,9.40
2022-10-04T04:45:45.823Z,9.40
2022-10-04T04:50:55.146Z,9.40
2022-10-04T04:56:04.211Z,9.40
2022-10-04T05:01:18.869Z,9.40
2022-10-04T05:06:34.755Z,9.50
2022-10-04T05:11:39.872Z,9.60
2022-10-04T05:16:51.992Z,9.80
2022-10-04T05:21:56.854Z,9.80
2022-10-04T05:27:06.634Z,9.80
2022-10-04T05:32:46.395Z,9.90
2022-10-04T05:38:15.715Z,9.90
2022-10-04T05:43:45.655Z,9.90
2022-10-04T05:49:03.047Z,9.90
2022-10-04T05:54:09.826Z,10.00
2022-10-04T05:59:25.999Z,10.00
2022-10-04T06:04:44.799Z,10.00
2022-10-04T06:10:07.796Z,10.10
2022-10-04T06:15:20.725Z,10.20
2022-10-04T06:21:07.185Z,10.30
2022-10-04T06:26:17.585Z,10.30
2022-10-04T06:31:26.806Z,10.40
2022-10-04T06:36:50.544Z,10.50
2022-10-04T06:42:11.984Z,10.50
2022-10-04T06:47:44.178Z,10.60
2022-10-04T06:53:11.767Z,10.70
2022-10-04T06:58:42.215Z,10.80
2022-10-04T07:03:57.625Z,10.90
2022-10-04T07:09:05.860Z,11.20
2022-10-04T07:14:21.145Z,11.40
2022-10-04T07:19:41.692Z,11.50
2022-10-04T07:25:18.613Z,11.70
2022-10-04T07:30:24.322Z,11.80
2022-10-04T07:35:53.820Z,12.10
2022-10-04T07:41:11.602Z,12.20
2022-10-04T07:46:30.337Z,12.40
2022-10-04T07:52:10.543Z,12.60
2022-10-04T07:57:19.833Z,12.70
2022-10-04T08:02:47.864Z,12.80
2022-10-04T08:08:18.929Z,12.90
2022-10-04T08:13:42.935Z,13.10
2022-10-04T08:19:17.663Z,13.30
2022-10-04T08:24:32.164Z,13.30
2022-10-04T08:29:53.647Z,13.50
2022-10-04T08:35:10.196Z,13.60
2022-10-04T08:40:44.401Z,13.70
2022-10-04T08:46:18.876Z,13.70
2022-10-04T08:51:51.795Z,13.70
2022-10-04T08:57:29.285Z,13.80
2022-10-04T09:02:49.156Z,14.10
2022-10-04T09:08:12.505Z,14.20
2022-10-04T09:13:31.581Z,14.40
2022-10-04T09:18:52.424Z,14.60
2022-10-04T09:24:23.091Z,14.50
2022-10-04T09:29:53.803Z,14.30
2022-10-04T09:35:15.740Z,14.20
2022-10-04T09:40:37.427Z,14.20
2022-10-04T09:45:49.224Z,14.20
2022-10-04T09:51:26.629Z,14.30
2022-10-04T09:57:14.384Z,14.30
2022-10-04T10:02:18.121Z,14.20
2022-10-04T10:07:47.689Z,14.40
2022-10-04T10:13:32.231Z,14.50
2022-10-04T10:18:56.485Z,14.90
2022-10-04T10:24:25.313Z,14.90
2022-10-04T10:29:53.924Z,14.90
2022-10-04T10:35:28.091Z,14.90
2022-10-04T10:40:46.145Z,15.10
2022-10-04T10:45:57.241Z,15.30
2022-10-04T10:51:42.591Z,15.10
2022-10-04T10:56:57.574Z,15.20
2022-10-04T11:02:49.357Z,15.60
2022-10-04T11:08:05.732Z,15.70
2022-10-04T11:13:27.189Z,15.70
2022-10-04T11:18:50.405Z,15.60
2022-10-04T11:24:15.405Z,15.20
2022-10-04T11:29:32.197Z,15.20
2022-10-04T11:35:03.164Z,15.60
2022-10-04T11:40:06.765Z,15.70
2022-10-04T11:45:33.860Z,15.80
2022-10-04T11:51:01.434Z,15.80
2022-10-04T11:56:26.605Z,16.00
2022-10-04T12:02:07.656Z,16.00
2022-10-04T12:07:52.334Z,16.20
2022-10-04T12:13:27.542Z,16.40
2022-10-04T12:19:09.045Z,16.80
2022-10-04T12:24:35.023Z,17.10
2022-10-04T12:30:22.197Z,16.70
2022-10-04T12:35:48.637Z,16.60
2022-10-04T12:41:15.045Z,16.20
2022-10-04T12:47:05.463Z,16.40
2022-10-04T12:52:28.154Z,16.70
2022-10-04T12:58:00.856Z,16.90
2022-10-04T13:03:49.536Z,17.10
2022-10-04T13:09:20.766Z,17.00
2022-10-04T13:14:39.668Z,17.20
2022-10-04T13:20:03.959Z,17.60
2022-10-04T13:25:19.032Z,17.70
2022-10-04T13:30:30.009Z,17.50
2022-10-04T13:35:42.716Z,17.30
2022-10-04T13:47:10.771Z,16.80
2022-10-04T13:53:03.952Z,16.60
2022-10-04T13:58:29.005Z,16.80
2022-10-04T14:04:01.445Z,17.20
2022-10-04T14:10:10.940Z,17.40
2022-10-04T14:22:04.793Z,17.40
2022-10-04T14:27:21.835Z,17.40
2022-10-04T14:32:28.839Z,17.60
2022-10-04T14:38:05.096Z,17.60
2022-10-04T14:43:45.266Z,17.40
2022-10-04T14:49:03.488Z,17.30
2022-10-04T14:54:15.849Z,17.10
2022-10-04T14:59:26.698Z,16.50
2022-10-04T15:04:53.251Z,16.10
2022-10-04T15:10:25.184Z,15.90
2022-10-04T15:15:39.067Z,15.80
2022-10-04T15:20:57.599Z,15.80
2022-10-04T15:26:06.926Z,15.90
2022-10-04T15:31:37.032Z,15.80
2022-10-04T15:36:49.160Z,15.70
2022-10-04T15:42:13.977Z,15.50
2022-10-04T15:47:36.004Z,15.30
2022-10-04T15:53:19.953Z,15.00
2022-10-04T15:58:50.662Z,14.90
2022-10-04T16:04:20.413Z,14.70
2022-10-04T16:10:01.675Z,14.60
2022-10-04T16:15:21.255Z,14.50
2022-10-04T16:20:36.275Z,14.30
2022-10-04T16:25:40.048Z,14.20
2022-10-04T16:31:07.887Z,14.00
2022-10-04T16:36:17.276Z,13.80
2022-10-04T16:41:36.707Z,13.50
2022-10-04T16:46:46.784Z,13.20
2022-10-04T16:52:13.945Z,13.00
2022-10-04T16:57:22.799Z,12.90
2022-10-04T17:02:35.243Z,12.60
2022-10-04T17:08:17.115Z,12.50
2022-10-04T17:13:44.348Z,12.30
2022-10-04T17:19:09.682Z,12.00
2022-10-04T17:24:13.044Z,11.80
2022-10-04T17:29:47.516Z,11.60
2022-10-04T17:35:13.085Z,11.40
2022-10-04T17:40:49.395Z,11.20
2022-10-04T17:46:30.110Z,11.10
2022-10-04T17:52:01.502Z,10.90
2022-10-04T17:57:04.953Z,10.80
2022-10-04T18:02:27.925Z,10.60
2022-10-04T18:07:42.435Z,10.50
2022-10-04T18:13:28.384Z,10.30
2022-10-04T18:18:40.596Z,10.20
2022-10-04T18:23:59.184Z,10.00
2022-10-04T18:29:08.299Z,9.90
2022-10-04T18:34:11.485Z,9.70
2022-10-04T18:39:15.655Z,9.60
2022-10-04T18:44:30.835Z,9.50
2022-10-04T18:49:49.059Z,9.40
2022-10-04T18:55:14.230Z,9.40
2022-10-04T19:00:37.006Z,9.30
2022-10-04T19:05:59.831Z,9.20
2022-10-04T19:11:18.805Z,9.10
2022-10-04T19:16:42.132Z,9.00
2022-10-04T19:22:01.979Z,9.00
2022-10-04T19:27:13.843Z,9.00
2022-10-04T19:32:32.233Z,8.90
2022-10-04T19:37:50.645Z,8.90
2022-10-04T19:43:12.004Z,8.80
2022-10-04T19:48:27.566Z,8.80
2022-10-04T19:53:43.576Z,8.70
2022-10-04T19:59:09.805Z,8.70
2022-10-04T20:04:40.606Z,8.60
2022-10-04T20:09:47.845Z,8.60
2022-10-04T20:14:51.130Z,8.60
2022-10-04T20:19:54.738Z,8.60
2022-10-04T20:24:59.871Z,8.70
2022-10-04T20:30:06.416Z,8.70
2022-10-04T20:35:16.194Z,8.60
2022-10-04T20:40:25.516Z,8.60
2022-10-04T20:45:31.050Z,8.60
2022-10-04T20:50:40.322Z,8.50
2022-10-04T20:55:46.483Z,8.50
2022-10-04T21:00:54.978Z,8.40
2022-10-04T21:06:04.396Z,8.40
2022-10-04T21:11:16.937Z,8.30
2022-10-04T21:16:44.779Z,8.20
2022-10-04T21:21:49.835Z,8.20
2022-10-04T21:26:59.655Z,8.10
2022-10-04T21:32:03.082Z,8.10
2022-10-04T21:37:06.665Z,8.00
2022-10-04T21:42:10.394Z,7.90
2022-10-04T21:47:13.619Z,7.90
2022-10-04T21:52:18.695Z,7.90
2022-10-04T21:57:24.727Z,7.80
2022-10-04T22:02:27.895Z,7.70
2022-10-04T22:07:31.204Z,7.60
2022-10-04T22:12:34.455Z,7.60
2022-10-04T22:17:37.725Z,7.50
2022-10-04T22:22:41.145Z,7.50
2022-10-04T22:27:45.984Z,7.50
2022-10-04T22:32:55.071Z,7.50
2022-10-04T22:38:00.256Z,7.40
2022-10-04T22:43:06.745Z,7.40
2022-10-04T22:48:16.013Z,7.30
2022-10-04T22:53:22.547Z,7.30
2022-10-04T22:58:27.445Z,7.30
2022-10-04T23:03:32.788Z,7.20
2022-10-04T23:08:36.639Z,7.10
2022-10-04T23:13:39.891Z,7.10
2022-10-04T23:18:43.395Z,7.10
2022-10-04T23:23:47.864Z,7.00
2022-10-04T23:28:52.355Z,7.00
2022-10-04T23:33:57.646Z,7.00
2022-10-04T23:39:02.345Z,6.90
2022-10-04T23:44:15.255Z,6.80
2022-10-04T23:49:21.136Z,6.90
2022-10-04T23:54:25.155Z,7.00
2022-10-04T23:59:29.413Z,7.00
